sensor_id;sensor_type;location;lat;lon;timestamp;pressure;altitude;pressure_sealevel;temperature;humidity
61384;BME280;63511;49.346;8.798;2023-01-29T00:01:16;101473.88;;;4.04;59.47
61384;BME280;63511;49.346;8.798;2023-01-29T00:03:45;101474.28;;;4.00;59.92
61384;BME280;63511;49.346;8.798;2023-01-29T00:06:13;101459.63;;;4.03;59.13
61384;BME280;63511;49.346;8.798;2023-01-29T00:08:40;101469.25;;;4.07;59.63
61384;BME280;63511;49.346;8.798;2023-01-29T00:11:07;101472.25;;;4.12;59.29
61384;BME280;63511;49.346;8.798;2023-01-29T00:13:34;101471.53;;;4.13;58.87
61384;BME280;63511;49.346;8.798;2023-01-29T00:16:02;101475.28;;;4.09;59.57
61384;BME280;63511;49.346;8.798;2023-01-29T00:18:30;101480.16;;;4.01;60.00
61384;BME280;63511;49.346;8.798;2023-01-29T00:20:56;101473.44;;;3.93;59.28
61384;BME280;63511;49.346;8.798;2023-01-29T00:23:25;101484.94;;;4.06;59.17
61384;BME280;63511;49.346;8.798;2023-01-29T00:25:52;101479.22;;;3.77;58.96
61384;BME280;63511;49.346;8.798;2023-01-29T00:28:18;101476.84;;;3.86;59.66
61384;BME280;63511;49.346;8.798;2023-01-29T00:30:45;101465.22;;;3.57;61.77
61384;BME280;63511;49.346;8.798;2023-01-29T00:33:12;101481.38;;;3.16;62.49
61384;BME280;63511;49.346;8.798;2023-01-29T00:35:39;101458.66;;;3.43;61.68
61384;BME280;63511;49.346;8.798;2023-01-29T00:38:06;101470.44;;;3.37;62.71
61384;BME280;63511;49.346;8.798;2023-01-29T00:40:36;101463.38;;;3.19;62.39
61384;BME280;63511;49.346;8.798;2023-01-29T00:43:18;101470.16;;;3.13;62.56
61384;BME280;63511;49.346;8.798;2023-01-29T00:46:03;101469.88;;;3.54;61.30
61384;BME280;63511;49.346;8.798;2023-01-29T00:48:30;101475.50;;;3.30;62.68
61384;BME280;63511;49.346;8.798;2023-01-29T00:50:57;101473.22;;;3.61;59.46
61384;BME280;63511;49.346;8.798;2023-01-29T00:53:24;101475.41;;;3.51;59.06
61384;BME280;63511;49.346;8.798;2023-01-29T00:55:52;101467.69;;;3.64;59.01
61384;BME280;63511;49.346;8.798;2023-01-29T00:58:19;101463.00;;;3.74;58.71
61384;BME280;63511;49.346;8.798;2023-01-29T01:00:50;101466.56;;;3.76;59.14
61384;BME280;63511;49.346;8.798;2023-01-29T01:03:17;101474.16;;;3.55;59.98
61384;BME280;63511;49.346;8.798;2023-01-29T01:05:42;101467.63;;;3.27;59.74
61384;BME280;63511;49.346;8.798;2023-01-29T01:08:09;101479.22;;;3.33;59.16
61384;BME280;63511;49.346;8.798;2023-01-29T01:10:58;101475.31;;;3.21;59.65
61384;BME280;63511;49.346;8.798;2023-01-29T01:13:24;101476.19;;;3.36;59.15
61384;BME280;63511;49.346;8.798;2023-01-29T01:15:54;101486.19;;;3.22;59.63
61384;BME280;63511;49.346;8.798;2023-01-29T01:18:20;101491.59;;;3.11;59.49
61384;BME280;63511;49.346;8.798;2023-01-29T01:20:48;101497.47;;;3.04;61.21
61384;BME280;63511;49.346;8.798;2023-01-29T01:23:17;101481.25;;;2.86;62.39
61384;BME280;63511;49.346;8.798;2023-01-29T01:25:44;101479.25;;;3.12;61.39
61384;BME280;63511;49.346;8.798;2023-01-29T01:28:12;101476.47;;;2.95;62.08
61384;BME280;63511;49.346;8.798;2023-01-29T01:30:39;101485.38;;;2.65;62.35
61384;BME280;63511;49.346;8.798;2023-01-29T01:33:06;101482.13;;;3.01;61.64
61384;BME280;63511;49.346;8.798;2023-01-29T01:35:33;101476.81;;;2.84;61.44
61384;BME280;63511;49.346;8.798;2023-01-29T01:38:00;101467.69;;;3.13;60.90
61384;BME280;63511;49.346;8.798;2023-01-29T01:40:27;101471.38;;;3.30;60.13
61384;BME280;63511;49.346;8.798;2023-01-29T01:42:56;101482.75;;;3.42;60.69
61384;BME280;63511;49.346;8.798;2023-01-29T01:45:27;101479.59;;;3.22;60.88
61384;BME280;63511;49.346;8.798;2023-01-29T01:47:57;101476.69;;;3.40;60.60
61384;BME280;63511;49.346;8.798;2023-01-29T01:50:29;101457.13;;;3.29;61.86
61384;BME280;63511;49.346;8.798;2023-01-29T01:52:58;101470.31;;;3.35;59.71
61384;BME280;63511;49.346;8.798;2023-01-29T01:55:29;101477.28;;;3.31;59.48
61384;BME280;63511;49.346;8.798;2023-01-29T01:58:02;101459.91;;;3.47;58.75
61384;BME280;63511;49.346;8.798;2023-01-29T02:00:32;101453.16;;;3.38;60.29
61384;BME280;63511;49.346;8.798;2023-01-29T02:03:00;101463.53;;;3.34;60.72
61384;BME280;63511;49.346;8.798;2023-01-29T02:05:45;101464.22;;;3.40;59.84
61384;BME280;63511;49.346;8.798;2023-01-29T02:08:36;101473.72;;;3.22;60.23
61384;BME280;63511;49.346;8.798;2023-01-29T02:11:20;101471.44;;;3.09;60.00
61384;BME280;63511;49.346;8.798;2023-01-29T02:13:47;101478.22;;;3.03;60.40
61384;BME280;63511;49.346;8.798;2023-01-29T02:16:27;101474.81;;;3.10;61.34
61384;BME280;63511;49.346;8.798;2023-01-29T02:18:53;101472.66;;;3.13;62.14
61384;BME280;63511;49.346;8.798;2023-01-29T02:21:35;101474.66;;;3.08;62.79
61384;BME280;63511;49.346;8.798;2023-01-29T02:24:45;101474.59;;;3.29;59.74
61384;BME280;63511;49.346;8.798;2023-01-29T02:27:18;101463.91;;;3.23;60.36
61384;BME280;63511;49.346;8.798;2023-01-29T02:29:54;101458.25;;;3.10;60.14
61384;BME280;63511;49.346;8.798;2023-01-29T02:32:29;101460.00;;;3.11;60.08
61384;BME280;63511;49.346;8.798;2023-01-29T02:35:06;101469.22;;;3.33;60.25
61384;BME280;63511;49.346;8.798;2023-01-29T02:38:00;101454.34;;;2.98;60.10
61384;BME280;63511;49.346;8.798;2023-01-29T02:40:31;101448.47;;;3.05;59.91
61384;BME280;63511;49.346;8.798;2023-01-29T02:43:06;101435.88;;;3.33;58.97
61384;BME280;63511;49.346;8.798;2023-01-29T02:45:43;101436.38;;;3.37;59.57
61384;BME280;63511;49.346;8.798;2023-01-29T02:48:18;101444.56;;;2.92;62.96
61384;BME280;63511;49.346;8.798;2023-01-29T02:50:48;101440.94;;;3.12;63.67
61384;BME280;63511;49.346;8.798;2023-01-29T02:53:21;101447.22;;;2.94;63.53
61384;BME280;63511;49.346;8.798;2023-01-29T02:55:55;101450.44;;;2.93;62.88
61384;BME280;63511;49.346;8.798;2023-01-29T02:58:28;101420.19;;;2.62;64.10
61384;BME280;63511;49.346;8.798;2023-01-29T03:01:01;101443.81;;;3.00;63.35
61384;BME280;63511;49.346;8.798;2023-01-29T03:03:33;101432.13;;;2.78;62.00
61384;BME280;63511;49.346;8.798;2023-01-29T03:06:05;101438.00;;;2.65;62.88
61384;BME280;63511;49.346;8.798;2023-01-29T03:08:36;101441.72;;;2.82;61.55
61384;BME280;63511;49.346;8.798;2023-01-29T03:11:08;101431.06;;;2.69;61.43
61384;BME280;63511;49.346;8.798;2023-01-29T03:13:41;101438.81;;;3.08;60.84
61384;BME280;63511;49.346;8.798;2023-01-29T03:16:16;101436.31;;;3.15;61.08
61384;BME280;63511;49.346;8.798;2023-01-29T03:18:49;101440.97;;;2.97;62.17
61384;BME280;63511;49.346;8.798;2023-01-29T03:21:21;101444.69;;;3.01;61.06
61384;BME280;63511;49.346;8.798;2023-01-29T03:24:08;101447.19;;;3.08;61.67
61384;BME280;63511;49.346;8.798;2023-01-29T03:26:53;101448.78;;;3.08;61.93
61384;BME280;63511;49.346;8.798;2023-01-29T03:29:39;101447.38;;;3.03;62.56
61384;BME280;63511;49.346;8.798;2023-01-29T03:32:27;101448.50;;;2.76;63.15
61384;BME280;63511;49.346;8.798;2023-01-29T03:34:57;101454.41;;;2.63;63.26
61384;BME280;63511;49.346;8.798;2023-01-29T03:37:32;101461.00;;;2.69;63.36
61384;BME280;63511;49.346;8.798;2023-01-29T03:40:01;101469.00;;;2.74;63.29
61384;BME280;63511;49.346;8.798;2023-01-29T03:42:35;101468.44;;;2.34;65.04
61384;BME280;63511;49.346;8.798;2023-01-29T03:45:14;101467.53;;;2.33;66.67
61384;BME280;63511;49.346;8.798;2023-01-29T03:47:48;101464.00;;;2.60;64.82
61384;BME280;63511;49.346;8.798;2023-01-29T03:50:30;101460.81;;;2.46;65.19
61384;BME280;63511;49.346;8.798;2023-01-29T03:53:03;101473.47;;;2.48;65.19
61384;BME280;63511;49.346;8.798;2023-01-29T03:55:36;101459.34;;;2.13;65.67
61384;BME280;63511;49.346;8.798;2023-01-29T03:58:13;101470.59;;;2.52;64.89
61384;BME280;63511;49.346;8.798;2023-01-29T04:00:52;101475.06;;;2.47;64.00
61384;BME280;63511;49.346;8.798;2023-01-29T04:03:23;101480.38;;;2.22;66.16
61384;BME280;63511;49.346;8.798;2023-01-29T04:05:57;101459.69;;;1.95;68.27
61384;BME280;63511;49.346;8.798;2023-01-29T04:08:38;101459.53;;;2.14;67.63
61384;BME280;63511;49.346;8.798;2023-01-29T04:11:10;101461.69;;;2.26;66.03
61384;BME280;63511;49.346;8.798;2023-01-29T04:13:38;101452.59;;;2.26;65.06
61384;BME280;63511;49.346;8.798;2023-01-29T04:16:08;101451.53;;;2.31;64.69
61384;BME280;63511;49.346;8.798;2023-01-29T04:18:38;101473.25;;;2.39;65.21
61384;BME280;63511;49.346;8.798;2023-01-29T04:21:05;101462.19;;;2.02;66.39
61384;BME280;63511;49.346;8.798;2023-01-29T04:23:32;101475.88;;;1.98;66.64
61384;BME280;63511;49.346;8.798;2023-01-29T04:26:12;101481.75;;;2.13;65.75
61384;BME280;63511;49.346;8.798;2023-01-29T04:28:58;101481.47;;;2.38;65.55
61384;BME280;63511;49.346;8.798;2023-01-29T04:40:11;101468.59;;;2.07;67.64
61384;BME280;63511;49.346;8.798;2023-01-29T04:42:47;101468.41;;;2.12;67.50
61384;BME280;63511;49.346;8.798;2023-01-29T04:45:19;101454.69;;;1.95;68.81
61384;BME280;63511;49.346;8.798;2023-01-29T04:47:54;101465.28;;;1.73;70.17
61384;BME280;63511;49.346;8.798;2023-01-29T04:50:28;101484.28;;;1.58;70.03
61384;BME280;63511;49.346;8.798;2023-01-29T04:53:06;101491.88;;;2.07;68.90
61384;BME280;63511;49.346;8.798;2023-01-29T04:55:42;101490.00;;;2.47;67.64
61384;BME280;63511;49.346;8.798;2023-01-29T04:58:13;101479.66;;;2.66;65.49
61384;BME280;63511;49.346;8.798;2023-01-29T05:00:47;101479.31;;;2.70;65.65
61384;BME280;63511;49.346;8.798;2023-01-29T05:03:15;101478.94;;;2.17;69.00
61384;BME280;63511;49.346;8.798;2023-01-29T05:05:45;101450.13;;;2.40;67.63
61384;BME280;63511;49.346;8.798;2023-01-29T05:08:18;101443.16;;;2.66;65.55
61384;BME280;63511;49.346;8.798;2023-01-29T05:10:48;101446.53;;;2.81;64.83
61384;BME280;63511;49.346;8.798;2023-01-29T05:13:18;101431.22;;;2.49;66.89
61384;BME280;63511;49.346;8.798;2023-01-29T05:15:50;101433.34;;;2.18;68.19
61384;BME280;63511;49.346;8.798;2023-01-29T05:18:20;101409.50;;;2.34;67.74
61384;BME280;63511;49.346;8.798;2023-01-29T05:20:47;101433.53;;;2.20;66.91
61384;BME280;63511;49.346;8.798;2023-01-29T05:23:16;101432.94;;;1.73;67.87
61384;BME280;63511;49.346;8.798;2023-01-29T05:25:43;101448.06;;;1.74;69.51
61384;BME280;63511;49.346;8.798;2023-01-29T05:28:12;101435.97;;;1.77;70.15
61384;BME280;63511;49.346;8.798;2023-01-29T05:30:42;101438.69;;;2.00;68.82
61384;BME280;63511;49.346;8.798;2023-01-29T05:33:12;101437.09;;;2.14;68.87
61384;BME280;63511;49.346;8.798;2023-01-29T05:35:39;101442.63;;;2.40;66.67
61384;BME280;63511;49.346;8.798;2023-01-29T05:38:05;101444.75;;;2.23;66.69
61384;BME280;63511;49.346;8.798;2023-01-29T05:40:32;101455.81;;;2.25;67.39
61384;BME280;63511;49.346;8.798;2023-01-29T05:42:59;101436.56;;;1.96;68.56
61384;BME280;63511;49.346;8.798;2023-01-29T05:45:27;101451.34;;;2.16;67.48
61384;BME280;63511;49.346;8.798;2023-01-29T05:47:55;101452.59;;;2.12;66.41
61384;BME280;63511;49.346;8.798;2023-01-29T05:50:23;101441.53;;;2.03;66.76
61384;BME280;63511;49.346;8.798;2023-01-29T05:52:55;101447.50;;;1.77;69.48
61384;BME280;63511;49.346;8.798;2023-01-29T05:55:22;101461.97;;;1.93;69.54
61384;BME280;63511;49.346;8.798;2023-01-29T05:57:48;101467.38;;;2.18;66.97
61384;BME280;63511;49.346;8.798;2023-01-29T06:00:16;101476.25;;;2.08;66.83
61384;BME280;63511;49.346;8.798;2023-01-29T06:02:44;101466.31;;;2.16;66.46
61384;BME280;63511;49.346;8.798;2023-01-29T06:05:11;101476.72;;;1.92;68.11
61384;BME280;63511;49.346;8.798;2023-01-29T06:07:38;101478.59;;;1.59;70.34
61384;BME280;63511;49.346;8.798;2023-01-29T06:10:10;101464.69;;;2.02;69.05
61384;BME280;63511;49.346;8.798;2023-01-29T06:12:37;101460.97;;;2.27;67.83
61384;BME280;63511;49.346;8.798;2023-01-29T06:15:05;101457.53;;;1.91;70.46
61384;BME280;63511;49.346;8.798;2023-01-29T06:17:32;101459.25;;;1.78;71.07
61384;BME280;63511;49.346;8.798;2023-01-29T06:20:00;101458.91;;;1.75;71.28
61384;BME280;63511;49.346;8.798;2023-01-29T06:22:26;101438.97;;;1.67;70.16
61384;BME280;63511;49.346;8.798;2023-01-29T06:24:53;101445.09;;;1.91;69.92
61384;BME280;63511;49.346;8.798;2023-01-29T06:27:20;101436.34;;;1.80;69.75
61384;BME280;63511;49.346;8.798;2023-01-29T06:29:46;101456.47;;;2.03;70.38
61384;BME280;63511;49.346;8.798;2023-01-29T06:32:13;101454.94;;;2.32;68.18
61384;BME280;63511;49.346;8.798;2023-01-29T06:34:40;101463.13;;;2.38;67.03
61384;BME280;63511;49.346;8.798;2023-01-29T06:37:08;101466.59;;;1.97;67.63
61384;BME280;63511;49.346;8.798;2023-01-29T06:39:35;101455.41;;;2.08;68.56
61384;BME280;63511;49.346;8.798;2023-01-29T06:42:02;101477.88;;;2.22;67.82
61384;BME280;63511;49.346;8.798;2023-01-29T06:44:29;101471.84;;;2.27;68.07
61384;BME280;63511;49.346;8.798;2023-01-29T06:46:56;101465.72;;;2.04;68.30
61384;BME280;63511;49.346;8.798;2023-01-29T06:49:23;101464.69;;;2.16;68.17
61384;BME280;63511;49.346;8.798;2023-01-29T06:51:50;101475.59;;;2.38;68.41
61384;BME280;63511;49.346;8.798;2023-01-29T06:54:18;101475.91;;;2.20;69.14
61384;BME280;63511;49.346;8.798;2023-01-29T06:56:45;101466.75;;;1.92;70.65
61384;BME280;63511;49.346;8.798;2023-01-29T06:59:11;101474.81;;;1.96;70.20
61384;BME280;63511;49.346;8.798;2023-01-29T07:01:38;101466.19;;;1.73;70.92
61384;BME280;63511;49.346;8.798;2023-01-29T07:04:06;101471.38;;;1.82;70.83
61384;BME280;63511;49.346;8.798;2023-01-29T07:06:33;101465.88;;;1.84;70.59
61384;BME280;63511;49.346;8.798;2023-01-29T07:08:59;101457.53;;;1.91;70.04
61384;BME280;63511;49.346;8.798;2023-01-29T07:11:28;101453.78;;;1.94;71.20
61384;BME280;63511;49.346;8.798;2023-01-29T07:13:55;101438.66;;;1.86;70.77
61384;BME280;63511;49.346;8.798;2023-01-29T07:16:22;101464.84;;;2.03;69.42
61384;BME280;63511;49.346;8.798;2023-01-29T07:18:49;101466.09;;;1.45;71.10
61384;BME280;63511;49.346;8.798;2023-01-29T07:21:16;101476.25;;;1.53;70.32
61384;BME280;63511;49.346;8.798;2023-01-29T07:23:42;101447.56;;;1.91;68.85
61384;BME280;63511;49.346;8.798;2023-01-29T07:26:10;101477.94;;;1.74;70.58
61384;BME280;63511;49.346;8.798;2023-01-29T07:28:39;101472.91;;;1.60;70.62
61384;BME280;63511;49.346;8.798;2023-01-29T07:31:06;101488.47;;;1.86;70.75
61384;BME280;63511;49.346;8.798;2023-01-29T07:33:33;101482.44;;;1.91;70.77
61384;BME280;63511;49.346;8.798;2023-01-29T07:36:00;101477.50;;;2.12;70.52
61384;BME280;63511;49.346;8.798;2023-01-29T07:38:27;101480.34;;;2.15;69.95
61384;BME280;63511;49.346;8.798;2023-01-29T07:40:54;101478.91;;;1.96;71.17
61384;BME280;63511;49.346;8.798;2023-01-29T07:43:21;101490.31;;;2.15;69.02
61384;BME280;63511;49.346;8.798;2023-01-29T07:45:50;101493.53;;;2.21;68.60
61384;BME280;63511;49.346;8.798;2023-01-29T07:48:17;101504.59;;;2.30;68.23
61384;BME280;63511;49.346;8.798;2023-01-29T07:50:44;101483.94;;;2.31;67.63
61384;BME280;63511;49.346;8.798;2023-01-29T07:53:12;101497.78;;;2.01;70.38
61384;BME280;63511;49.346;8.798;2023-01-29T07:55:40;101502.69;;;1.80;70.88
61384;BME280;63511;49.346;8.798;2023-01-29T07:58:08;101491.50;;;1.97;70.71
61384;BME280;63511;49.346;8.798;2023-01-29T08:00:35;101485.16;;;2.13;68.65
61384;BME280;63511;49.346;8.798;2023-01-29T08:03:05;101490.31;;;2.15;68.83
61384;BME280;63511;49.346;8.798;2023-01-29T08:05:33;101501.72;;;2.34;68.19
61384;BME280;63511;49.346;8.798;2023-01-29T08:07:59;101499.22;;;2.06;69.23
61384;BME280;63511;49.346;8.798;2023-01-29T08:10:27;101497.16;;;1.75;71.06
61384;BME280;63511;49.346;8.798;2023-01-29T08:12:55;101501.34;;;2.10;69.45
61384;BME280;63511;49.346;8.798;2023-01-29T08:15:22;101513.06;;;2.04;69.55
61384;BME280;63511;49.346;8.798;2023-01-29T08:17:50;101513.31;;;2.27;68.57
61384;BME280;63511;49.346;8.798;2023-01-29T08:20:18;101516.56;;;1.92;69.05
61384;BME280;63511;49.346;8.798;2023-01-29T08:22:45;101508.63;;;2.01;68.94
61384;BME280;63511;49.346;8.798;2023-01-29T08:25:12;101510.53;;;1.90;69.24
61384;BME280;63511;49.346;8.798;2023-01-29T08:27:40;101533.75;;;2.24;68.70
61384;BME280;63511;49.346;8.798;2023-01-29T08:30:08;101535.56;;;2.32;69.83
61384;BME280;63511;49.346;8.798;2023-01-29T08:32:35;101517.78;;;2.65;67.80
61384;BME280;63511;49.346;8.798;2023-01-29T08:35:02;101517.25;;;2.60;68.02
61384;BME280;63511;49.346;8.798;2023-01-29T08:37:30;101513.16;;;2.82;68.20
61384;BME280;63511;49.346;8.798;2023-01-29T08:39:57;101510.13;;;2.56;67.49
61384;BME280;63511;49.346;8.798;2023-01-29T08:42:24;101493.22;;;2.61;67.71
61384;BME280;63511;49.346;8.798;2023-01-29T08:44:51;101503.19;;;2.89;67.13
61384;BME280;63511;49.346;8.798;2023-01-29T08:47:17;101497.31;;;2.46;67.27
61384;BME280;63511;49.346;8.798;2023-01-29T08:49:44;101508.72;;;2.51;67.08
61384;BME280;63511;49.346;8.798;2023-01-29T08:52:11;101508.53;;;2.64;65.69
61384;BME280;63511;49.346;8.798;2023-01-29T08:54:40;101526.38;;;2.74;65.57
61384;BME280;63511;49.346;8.798;2023-01-29T08:57:06;101534.19;;;2.98;64.94
61384;BME280;63511;49.346;8.798;2023-01-29T08:59:33;101533.09;;;3.17;64.53
61384;BME280;63511;49.346;8.798;2023-01-29T09:02:00;101543.25;;;2.90;63.16
61384;BME280;63511;49.346;8.798;2023-01-29T09:04:27;101535.22;;;3.21;61.90
61384;BME280;63511;49.346;8.798;2023-01-29T09:06:54;101538.47;;;2.99;62.81
61384;BME280;63511;49.346;8.798;2023-01-29T09:09:20;101512.06;;;3.15;61.46
61384;BME280;63511;49.346;8.798;2023-01-29T09:11:48;101518.44;;;3.41;60.98
61384;BME280;63511;49.346;8.798;2023-01-29T09:14:15;101511.03;;;2.92;63.69
61384;BME280;63511;49.346;8.798;2023-01-29T09:16:42;101499.97;;;2.62;61.64
61384;BME280;63511;49.346;8.798;2023-01-29T09:19:09;101473.06;;;2.94;62.38
61384;BME280;63511;49.346;8.798;2023-01-29T09:21:36;101466.13;;;2.92;61.68
61384;BME280;63511;49.346;8.798;2023-01-29T09:24:03;101463.44;;;2.97;60.72
61384;BME280;63511;49.346;8.798;2023-01-29T09:26:30;101457.22;;;3.52;61.10
61384;BME280;63511;49.346;8.798;2023-01-29T09:28:58;101454.09;;;3.69;60.64
61384;BME280;63511;49.346;8.798;2023-01-29T09:31:26;101462.75;;;3.42;60.71
61384;BME280;63511;49.346;8.798;2023-01-29T09:33:53;101456.66;;;3.55;59.90
61384;BME280;63511;49.346;8.798;2023-01-29T09:36:19;101463.28;;;3.84;60.50
61384;BME280;63511;49.346;8.798;2023-01-29T09:38:46;101470.22;;;3.57;60.34
61384;BME280;63511;49.346;8.798;2023-01-29T09:41:24;101468.50;;;3.78;59.39
61384;BME280;63511;49.346;8.798;2023-01-29T09:43:57;101467.16;;;3.66;59.66
61384;BME280;63511;49.346;8.798;2023-01-29T09:46:32;101467.47;;;3.25;59.88
61384;BME280;63511;49.346;8.798;2023-01-29T09:49:05;101452.59;;;2.83;60.43
61384;BME280;63511;49.346;8.798;2023-01-29T09:51:36;101456.16;;;3.43;59.23
61384;BME280;63511;49.346;8.798;2023-01-29T09:54:13;101484.63;;;3.01;59.03
61384;BME280;63511;49.346;8.798;2023-01-29T09:56:42;101489.31;;;3.56;58.45
61384;BME280;63511;49.346;8.798;2023-01-29T09:59:12;101493.28;;;3.40;59.38
61384;BME280;63511;49.346;8.798;2023-01-29T10:01:47;101489.56;;;3.22;59.45
61384;BME280;63511;49.346;8.798;2023-01-29T10:04:40;101495.53;;;3.53;59.56
61384;BME280;63511;49.346;8.798;2023-01-29T10:07:35;101472.41;;;3.39;59.10
61384;BME280;63511;49.346;8.798;2023-01-29T10:10:26;101480.06;;;3.85;58.46
61384;BME280;63511;49.346;8.798;2023-01-29T10:13:02;101485.59;;;4.19;57.55
61384;BME280;63511;49.346;8.798;2023-01-29T10:15:41;101488.97;;;3.90;56.71
61384;BME280;63511;49.346;8.798;2023-01-29T10:18:30;101499.13;;;3.92;57.85
61384;BME280;63511;49.346;8.798;2023-01-29T10:21:07;101503.91;;;3.60;58.27
61384;BME280;63511;49.346;8.798;2023-01-29T10:23:39;101501.63;;;3.92;58.42
61384;BME280;63511;49.346;8.798;2023-01-29T10:26:09;101501.56;;;4.06;57.35
61384;BME280;63511;49.346;8.798;2023-01-29T10:28:41;101506.63;;;3.92;58.68
61384;BME280;63511;49.346;8.798;2023-01-29T10:31:14;101499.88;;;3.83;56.87
61384;BME280;63511;49.346;8.798;2023-01-29T10:33:48;101490.84;;;3.77;57.79
61384;BME280;63511;49.346;8.798;2023-01-29T10:36:21;101501.75;;;3.63;56.80
61384;BME280;63511;49.346;8.798;2023-01-29T10:38:49;101486.81;;;3.93;56.94
61384;BME280;63511;49.346;8.798;2023-01-29T10:41:30;101485.13;;;3.71;58.13
61384;BME280;63511;49.346;8.798;2023-01-29T10:44:19;101479.31;;;3.56;58.45
61384;BME280;63511;49.346;8.798;2023-01-29T10:47:10;101470.34;;;3.72;57.59
61384;BME280;63511;49.346;8.798;2023-01-29T10:49:58;101466.34;;;3.45;59.62
61384;BME280;63511;49.346;8.798;2023-01-29T10:52:37;101467.06;;;3.43;58.55
61384;BME280;63511;49.346;8.798;2023-01-29T10:55:20;101457.81;;;3.35;59.03
61384;BME280;63511;49.346;8.798;2023-01-29T10:57:59;101465.47;;;3.37;57.91
61384;BME280;63511;49.346;8.798;2023-01-29T11:00:32;101452.94;;;3.51;58.30
61384;BME280;63511;49.346;8.798;2023-01-29T11:03:13;101460.94;;;3.93;58.55
61384;BME280;63511;49.346;8.798;2023-01-29T11:05:54;101459.97;;;3.76;57.85
61384;BME280;63511;49.346;8.798;2023-01-29T11:08:24;101448.66;;;3.50;58.52
61384;BME280;63511;49.346;8.798;2023-01-29T11:10:58;101442.38;;;3.61;58.17
61384;BME280;63511;49.346;8.798;2023-01-29T11:13:30;101440.97;;;3.56;57.46
61384;BME280;63511;49.346;8.798;2023-01-29T11:15:57;101422.00;;;3.65;58.85
61384;BME280;63511;49.346;8.798;2023-01-29T11:18:25;101430.53;;;4.26;57.88
61384;BME280;63511;49.346;8.798;2023-01-29T11:21:00;101427.97;;;4.11;56.76
61384;BME280;63511;49.346;8.798;2023-01-29T11:23:30;101420.41;;;3.95;56.16
61384;BME280;63511;49.346;8.798;2023-01-29T11:25:58;101422.44;;;3.83;56.30
61384;BME280;63511;49.346;8.798;2023-01-29T11:28:36;101415.16;;;4.08;57.59
61384;BME280;63511;49.346;8.798;2023-01-29T11:31:14;101411.09;;;3.34;57.59
61384;BME280;63511;49.346;8.798;2023-01-29T11:33:41;101410.88;;;3.77;57.81
61384;BME280;63511;49.346;8.798;2023-01-29T11:36:24;101413.78;;;3.96;56.90
61384;BME280;63511;49.346;8.798;2023-01-29T11:39:09;101407.63;;;3.85;58.67
61384;BME280;63511;49.346;8.798;2023-01-29T11:41:47;101401.53;;;4.36;57.71
61384;BME280;63511;49.346;8.798;2023-01-29T11:44:19;101403.38;;;4.07;57.55
61384;BME280;63511;49.346;8.798;2023-01-29T11:46:46;101396.28;;;3.73;56.94
61384;BME280;63511;49.346;8.798;2023-01-29T11:49:22;101395.31;;;3.57;58.59
61384;BME280;63511;49.346;8.798;2023-01-29T11:51:54;101386.41;;;3.81;58.81
61384;BME280;63511;49.346;8.798;2023-01-29T11:54:25;101366.00;;;3.63;58.77
61384;BME280;63511;49.346;8.798;2023-01-29T11:56:54;101372.78;;;3.94;57.80
61384;BME280;63511;49.346;8.798;2023-01-29T11:59:29;101360.59;;;3.97;58.41
61384;BME280;63511;49.346;8.798;2023-01-29T12:02:11;101360.53;;;3.81;59.46
61384;BME280;63511;49.346;8.798;2023-01-29T12:04:45;101338.31;;;3.38;58.80
61384;BME280;63511;49.346;8.798;2023-01-29T12:07:15;101338.47;;;3.70;58.24
61384;BME280;63511;49.346;8.798;2023-01-29T12:09:48;101331.97;;;3.79;56.93
61384;BME280;63511;49.346;8.798;2023-01-29T12:12:25;101335.31;;;4.32;59.03
61384;BME280;63511;49.346;8.798;2023-01-29T12:15:03;101316.78;;;4.61;56.40
61384;BME280;63511;49.346;8.798;2023-01-29T12:17:31;101326.88;;;4.16;56.01
61384;BME280;63511;49.346;8.798;2023-01-29T12:20:05;101325.34;;;4.25;57.13
61384;BME280;63511;49.346;8.798;2023-01-29T12:22:40;101315.75;;;3.82;58.28
61384;BME280;63511;49.346;8.798;2023-01-29T12:25:19;101298.75;;;3.87;58.88
61384;BME280;63511;49.346;8.798;2023-01-29T12:27:50;101282.34;;;4.05;56.96
61384;BME280;63511;49.346;8.798;2023-01-29T12:30:22;101299.63;;;4.26;57.29
61384;BME280;63511;49.346;8.798;2023-01-29T12:32:55;101300.47;;;4.34;57.46
61384;BME280;63511;49.346;8.798;2023-01-29T12:35:25;101293.94;;;4.74;56.15
61384;BME280;63511;49.346;8.798;2023-01-29T12:37:58;101290.53;;;4.26;55.98
61384;BME280;63511;49.346;8.798;2023-01-29T12:40:29;101304.28;;;4.07;56.88
61384;BME280;63511;49.346;8.798;2023-01-29T12:43:03;101270.25;;;4.55;56.57
61384;BME280;63511;49.346;8.798;2023-01-29T12:45:33;101268.94;;;4.43;57.27
61384;BME280;63511;49.346;8.798;2023-01-29T12:48:07;101264.56;;;4.33;57.21
61384;BME280;63511;49.346;8.798;2023-01-29T12:50:38;101274.56;;;4.17;57.14
61384;BME280;63511;49.346;8.798;2023-01-29T12:53:17;101284.63;;;4.26;58.08
61384;BME280;63511;49.346;8.798;2023-01-29T12:55:48;101278.88;;;4.11;55.96
61384;BME280;63511;49.346;8.798;2023-01-29T12:58:32;101276.50;;;4.36;57.34
61384;BME280;63511;49.346;8.798;2023-01-29T13:01:05;101279.16;;;4.21;56.78
61384;BME280;63511;49.346;8.798;2023-01-29T13:03:44;101262.78;;;4.16;58.07
61384;BME280;63511;49.346;8.798;2023-01-29T13:06:15;101267.75;;;4.01;56.45
61384;BME280;63511;49.346;8.798;2023-01-29T13:08:49;101274.50;;;4.24;56.05
61384;BME280;63511;49.346;8.798;2023-01-29T13:11:22;101277.59;;;4.15;56.57
61384;BME280;63511;49.346;8.798;2023-01-29T13:13:54;101277.56;;;4.38;57.34
61384;BME280;63511;49.346;8.798;2023-01-29T13:16:26;101263.09;;;4.66;55.71
61384;BME280;63511;49.346;8.798;2023-01-29T13:18:55;101259.97;;;4.13;55.93
61384;BME280;63511;49.346;8.798;2023-01-29T13:21:26;101237.00;;;4.40;55.08
61384;BME280;63511;49.346;8.798;2023-01-29T13:24:01;101257.06;;;4.33;55.30
61384;BME280;63511;49.346;8.798;2023-01-29T13:26:29;101265.13;;;4.31;57.35
61384;BME280;63511;49.346;8.798;2023-01-29T13:29:19;101249.25;;;4.14;57.22
61384;BME280;63511;49.346;8.798;2023-01-29T13:31:49;101255.25;;;4.01;58.88